Time,TemperatureF,DewpointF,PressureIn,WindDirection,WindDirectionDegrees,WindSpeedMPH,WindSpeedGustMPH,Humidity,HourlyPrecipIn,Conditions,Clouds,dailyrainin,SoftwareType,DateUTC
2013-12-18 00:11:00,50.0,13.0,29.67,SSE,164,23.0,64.0,22,0.00,,,0.01,,2013-12-18 07:11:00,
2013-12-18 00:22:00,51.0,14.0,29.65,SE,145,30.0,66.0,22,0.00,,,0.01,,2013-12-18 07:22:00,
2013-12-18 00:42:00,50.0,13.0,29.65,South,178,24.0,60.0,22,0.00,,,0.01,,2013-12-18 07:42:00,
2013-12-18 00:52:00,50.0,14.0,29.64,South,176,25.0,50.0,23,0.00,,,0.01,,2013-12-18 07:52:00,
2013-12-18 01:11:00,50.0,14.0,29.63,South,178,23.0,75.0,23,0.00,,,0.01,,2013-12-18 08:11:00,
2013-12-18 01:21:00,50.0,14.0,29.60,SE,129,17.0,53.0,23,0.00,,,0.01,,2013-12-18 08:21:00,
2013-12-18 01:42:00,50.0,14.0,29.61,SSW,207,12.0,51.0,23,0.00,,,0.01,,2013-12-18 08:42:00,
2013-12-18 01:52:00,50.0,14.0,29.57,West,272,14.0,56.0,23,0.00,,,0.01,,2013-12-18 08:52:00,
2013-12-18 02:11:00,50.0,14.0,29.59,SSE,166,20.0,51.0,23,0.00,,,0.01,,2013-12-18 09:11:00,
2013-12-18 02:22:00,50.0,14.0,29.58,West,278,22.0,64.0,23,0.00,,,0.01,,2013-12-18 09:22:00,
2013-12-18 02:43:00,50.0,14.0,29.55,WNW,285,22.0,54.0,23,0.00,,,0.01,,2013-12-18 09:43:00,
2013-12-18 02:53:00,50.0,14.0,29.55,SSE,153,29.0,76.0,23,0.00,,,0.01,,2013-12-18 09:53:00,
2013-12-18 03:12:00,50.0,14.0,29.55,WNW,284,25.0,57.0,23,0.00,,,0.01,,2013-12-18 10:12:00,
2013-12-18 03:23:00,50.0,14.0,29.54,West,274,25.0,56.0,23,0.00,,,0.01,,2013-12-18 10:23:00,
2013-12-18 03:42:00,50.0,15.0,29.55,NW,326,18.0,64.0,24,0.01,,,0.02,,2013-12-18 10:42:00,
2013-12-18 03:52:00,49.0,14.0,29.54,NE,55,21.0,57.0,24,0.01,,,0.02,,2013-12-18 10:52:00,
2013-12-18 04:12:00,50.0,15.0,29.53,NNW,329,17.0,60.0,24,0.01,,,0.02,,2013-12-18 11:12:00,
2013-12-18 04:23:00,49.0,15.0,29.54,East,87,22.0,61.0,25,0.01,,,0.02,,2013-12-18 11:23:00,
2013-12-18 04:42:00,49.0,15.0,29.54,West,262,16.0,60.0,25,0.00,,,0.02,,2013-12-18 11:42:00,
2013-12-18 04:53:00,49.0,15.0,29.53,NNE,23,13.0,38.0,25,0.00,,,0.02,,2013-12-18 11:53:00,
2013-12-18 05:11:00,49.0,15.0,29.52,ENE,62,15.0,44.0,25,0.00,,,0.02,,2013-12-18 12:11:00,
2013-12-18 05:21:00,50.0,16.0,29.52,WNW,286,18.0,60.0,25,0.00,,,0.02,,2013-12-18 12:21:00,
2013-12-18 05:42:00,49.0,15.0,29.53,NE,53,16.0,37.0,25,0.00,,,0.02,,2013-12-18 12:42:00,
2013-12-18 05:52:00,49.0,16.0,29.52,NE,56,13.0,48.0,26,0.00,,,0.02,,2013-12-18 12:52:00,
2013-12-18 06:21:00,48.0,15.0,29.52,ENE,60,16.0,32.0,26,0.00,,,0.02,,2013-12-18 13:21:00,
2013-12-18 06:42:00,49.0,16.0,29.53,WNW,303,12.0,49.0,26,0.00,,,0.02,,2013-12-18 13:42:00,
2013-12-18 06:52:00,49.0,16.0,29.51,SE,128,24.0,44.0,26,0.00,,,0.02,,2013-12-18 13:52:00,
2013-12-18 07:11:00,48.0,15.0,29.53,SSW,198,15.0,40.0,26,0.00,,,0.02,,2013-12-18 14:11:00,
2013-12-18 07:21:00,49.0,16.0,29.54,SE,141,27.0,42.0,26,0.00,,,0.02,,2013-12-18 14:21:00,
2013-12-18 07:42:00,49.0,15.0,29.54,SSE,165,17.0,36.0,25,0.00,,,0.02,,2013-12-18 14:42:00,
2013-12-18 07:52:00,49.0,15.0,29.56,North,9,10.0,49.0,25,0.00,,,0.02,,2013-12-18 14:52:00,
2013-12-18 08:11:00,49.0,15.0,29.54,SW,232,16.0,44.0,25,0.00,,,0.02,,2013-12-18 15:11:00,
2013-12-18 08:21:00,49.0,15.0,29.57,WSW,257,9.0,44.0,25,0.00,,,0.02,,2013-12-18 15:21:00,
2013-12-18 08:44:00,49.0,15.0,29.54,SSW,211,19.0,42.0,25,0.00,,,0.02,,2013-12-18 15:44:00,
2013-12-18 08:53:00,48.0,15.0,29.55,WNW,290,8.0,39.0,26,0.00,,,0.02,,2013-12-18 15:53:00,
2013-12-18 09:23:00,49.0,15.0,29.55,SW,234,13.0,28.0,25,0.00,,,0.02,,2013-12-18 16:23:00,
2013-12-18 09:42:00,50.0,16.0,29.56,West,281,7.0,26.0,25,0.00,,,0.02,,2013-12-18 16:42:00,
2013-12-18 09:53:00,50.0,16.0,29.57,WNW,296,4.0,24.0,25,0.00,,,0.02,,2013-12-18 16:53:00,
2013-12-18 10:12:00,50.0,16.0,29.58,WSW,250,12.0,25.0,25,0.00,,,0.02,,2013-12-18 17:12:00,
2013-12-18 10:22:00,50.0,16.0,29.55,SW,225,21.0,37.0,25,0.00,,,0.02,,2013-12-18 17:22:00,
2013-12-18 10:42:00,50.0,16.0,29.57,SSW,192,14.0,26.0,25,0.00,,,0.02,,2013-12-18 17:42:00,
2013-12-18 10:52:00,50.0,16.0,29.57,South,184,13.0,33.0,25,0.00,,,0.02,,2013-12-18 17:52:00,
2013-12-18 11:11:00,50.0,15.0,29.56,SSW,211,15.0,25.0,24,0.00,,,0.02,,2013-12-18 18:11:00,
2013-12-18 11:22:00,51.0,16.0,29.54,South,177,20.0,33.0,24,0.00,,,0.02,,2013-12-18 18:22:00,
2013-12-18 11:42:00,51.0,16.0,29.55,ENE,76,10.0,29.0,24,0.00,,,0.02,,2013-12-18 18:42:00,
2013-12-18 11:52:00,51.0,15.0,29.54,South,190,5.0,24.0,23,0.00,,,0.02,,2013-12-18 18:52:00,
2013-12-18 12:11:00,51.0,15.0,29.53,ESE,104,14.0,25.0,23,0.00,,,0.02,,2013-12-18 19:11:00,
2013-12-18 12:21:00,51.0,14.0,29.52,SSE,164,14.0,28.0,22,0.00,,,0.02,,2013-12-18 19:21:00,
2013-12-18 12:42:00,53.0,13.0,29.52,WSW,252,6.0,28.0,20,0.00,,,0.02,,2013-12-18 19:42:00,
2013-12-18 12:52:00,53.0,12.0,29.51,SSE,161,4.0,20.0,19,0.00,,,0.02,,2013-12-18 19:52:00,
2013-12-18 13:12:00,52.0,13.0,29.50,SW,222,4.0,17.0,21,0.00,,,0.02,,2013-12-18 20:12:00,
2013-12-18 13:22:00,53.0,13.0,29.50,West,265,6.0,19.0,20,0.00,,,0.02,,2013-12-18 20:22:00,
2013-12-18 13:42:00,53.0,16.0,29.49,South,182,9.0,20.0,23,0.00,,,0.01,,2013-12-18 20:42:00,
2013-12-18 13:53:00,52.0,15.0,29.49,SSE,164,7.0,19.0,23,0.00,,,0.01,,2013-12-18 20:53:00,
2013-12-18 14:11:00,52.0,15.0,29.47,SE,130,13.0,28.0,23,0.00,,,0.01,,2013-12-18 21:11:00,
2013-12-18 14:21:00,53.0,15.0,29.48,SE,144,12.0,22.0,22,0.00,,,0.01,,2013-12-18 21:21:00,
2013-12-18 14:43:00,52.0,15.0,29.48,South,190,8.0,30.0,23,0.00,,,0.01,,2013-12-18 21:43:00,
2013-12-18 14:53:00,52.0,13.0,29.47,NNE,15,6.0,31.0,21,0.00,,,0.01,,2013-12-18 21:53:00,
2013-12-18 15:12:00,52.0,16.0,29.49,South,171,8.0,18.0,24,0.00,,,0.01,,2013-12-18 22:12:00,
2013-12-18 15:22:00,52.0,16.0,29.49,South,171,8.0,18.0,24,0.00,,,0.01,,2013-12-18 22:22:00,
2013-12-18 15:43:00,49.0,16.0,29.50,West,273,4.0,36.0,27,0.00,,,0.01,,2013-12-18 22:43:00,
2013-12-18 15:52:00,49.0,16.0,29.50,NNE,17,5.0,17.0,27,0.00,,,0.01,,2013-12-18 22:52:00,
2013-12-18 16:12:00,48.0,16.0,29.50,NE,55,6.0,20.0,28,0.00,,,0.01,,2013-12-18 23:12:00,
2013-12-18 16:22:00,48.0,16.0,29.49,WNW,288,6.0,16.0,28,0.00,,,0.01,,2013-12-18 23:22:00,
2013-12-18 16:42:00,48.0,16.0,29.49,WSW,254,17.0,28.0,28,0.00,,,0.01,,2013-12-18 23:42:00,
2013-12-18 16:53:00,48.0,16.0,29.49,West,262,13.0,25.0,28,0.00,,,0.01,,2013-12-18 23:53:00,
2013-12-18 17:11:00,47.0,16.0,29.49,WNW,287,6.0,21.0,29,0.00,,,0.01,,2013-12-19 00:11:00,
2013-12-18 17:21:00,47.0,16.0,29.49,NW,304,20.0,30.0,29,0.00,,,0.01,,2013-12-19 00:21:00,
2013-12-18 17:42:00,47.0,16.0,29.47,South,175,12.0,26.0,29,0.00,,,0.01,,2013-12-19 00:42:00,
2013-12-18 17:52:00,47.0,16.0,29.48,WNW,286,8.0,40.0,29,0.00,,,0.01,,2013-12-19 00:52:00,
2013-12-18 18:11:00,47.0,16.0,29.47,ESE,108,13.0,24.0,29,0.00,,,0.01,,2013-12-19 01:11:00,
2013-12-18 18:21:00,47.0,16.0,29.47,South,169,21.0,47.0,29,0.00,,,0.01,,2013-12-19 01:21:00,
2013-12-18 18:42:00,47.0,16.0,29.48,East,96,14.0,38.0,29,0.00,,,0.01,,2013-12-19 01:42:00,
2013-12-18 18:52:00,47.0,16.0,29.46,SE,139,11.0,38.0,29,0.00,,,0.01,,2013-12-19 01:52:00,
2013-12-18 19:11:00,45.0,15.0,29.47,SE,133,6.0,22.0,30,0.00,,,0.01,,2013-12-19 02:11:00,
2013-12-18 19:22:00,46.0,16.0,29.46,ESE,106,11.0,17.0,30,0.00,,,0.01,,2013-12-19 02:22:00,
2013-12-18 20:53:00,33.0,22.0,29.47,ESE,115,8.0,16.0,64,0.00,,,0.01,,2013-12-19 03:53:00,
2013-12-18 21:12:00,32.0,22.0,29.49,SSE,147,9.0,12.0,67,0.00,,,0.01,,2013-12-19 04:12:00,
2013-12-18 21:23:00,31.0,23.0,29.50,South,184,6.0,9.0,71,0.00,,,0.01,,2013-12-19 04:23:00,
2013-12-18 21:42:00,31.0,23.0,29.50,SSE,152,5.0,9.0,71,0.00,,,0.01,,2013-12-19 04:42:00,
2013-12-18 21:53:00,30.0,22.0,29.50,SE,134,6.0,10.0,73,0.00,,,0.01,,2013-12-19 04:53:00,
2013-12-18 22:12:00,30.0,23.0,29.52,ESE,121,3.0,8.0,76,0.00,,,0.01,,2013-12-19 05:12:00,
2013-12-18 22:22:00,29.0,23.0,29.51,SE,137,2.0,6.0,77,0.00,,,0.01,,2013-12-19 05:22:00,
2013-12-18 22:42:00,29.0,23.0,29.52,North,11,3.0,7.0,78,0.00,,,0.01,,2013-12-19 05:42:00,
2013-12-18 22:52:00,29.0,23.0,29.52,WSW,246,0.0,6.0,78,0.00,,,0.01,,2013-12-19 05:52:00,
2013-12-18 23:12:00,29.0,23.0,29.53,East,97,7.0,9.0,78,0.00,,,0.01,,2013-12-19 06:12:00,
2013-12-18 23:22:00,28.0,22.0,29.53,ENE,69,2.0,4.0,79,0.00,,,0.01,,2013-12-19 06:22:00,
2013-12-18 23:42:00,27.0,22.0,29.54,ESE,105,2.0,5.0,81,0.00,,,0.01,,2013-12-19 06:42:00,
2013-12-18 23:52:00,27.0,22.0,29.54,ESE,105,2.0,5.0,81,0.00,,,0.01,,2013-12-19 06:52:00,